createdAt,value
2023-01-11T00:00:23.195Z,-11.59
2023-01-11T00:00:47.566Z,-11.59
2023-01-11T00:01:11.059Z,-11.60
2023-01-11T00:01:33.051Z,-11.61
2023-01-11T00:01:55.290Z,-11.61
2023-01-11T00:02:17.033Z,-11.63
2023-01-11T00:02:38.753Z,-11.64
2023-01-11T00:03:01.517Z,-11.65
2023-01-11T00:03:23.194Z,-11.68
2023-01-11T00:03:44.883Z,-11.68
2023-01-11T00:04:06.992Z,-11.70
2023-01-11T00:04:29.700Z,-11.71
2023-01-11T00:04:51.963Z,-11.73
2023-01-11T00:05:13.967Z,-11.74
2023-01-11T00:05:39.736Z,-11.75
2023-01-11T00:06:02.002Z,-11.77
2023-01-11T00:06:23.931Z,-11.79
2023-01-11T00:06:46.762Z,-11.80
2023-01-11T00:07:09.014Z,-11.81
2023-01-11T00:07:30.811Z,-11.83
2023-01-11T00:07:52.490Z,-11.85
2023-01-11T00:08:14.184Z,-11.86
2023-01-11T00:08:36.081Z,-11.86
2023-01-11T00:08:59.075Z,-11.86
2023-01-11T00:09:20.680Z,-11.86
2023-01-11T00:09:42.289Z,-11.86
2023-01-11T00:10:04.325Z,-11.84
2023-01-11T00:10:26.513Z,-11.82
2023-01-11T00:10:48.299Z,-11.81
2023-01-11T00:11:12.061Z,-11.79
2023-01-11T00:11:34.214Z,-11.78
2023-01-11T00:11:55.901Z,-11.76
2023-01-11T00:12:17.891Z,-11.74
2023-01-11T00:12:39.573Z,-11.74
2023-01-11T00:13:01.359Z,-11.73
2023-01-11T00:13:23.281Z,-11.72
2023-01-11T00:13:45.342Z,-11.72
2023-01-11T00:14:07.023Z,-11.71
2023-01-11T00:14:28.699Z,-11.70
2023-01-11T00:14:50.379Z,-11.69
2023-01-11T00:15:12.436Z,-11.69
2023-01-11T00:15:34.771Z,-11.68
2023-01-11T00:15:56.466Z,-11.67
2023-01-11T00:16:18.218Z,-11.67
2023-01-11T00:16:39.920Z,-11.66
2023-01-11T00:17:01.599Z,-11.66
2023-01-11T00:17:23.589Z,-11.65
2023-01-11T00:17:45.477Z,-11.65
2023-01-11T00:18:07.261Z,-11.63
2023-01-11T00:18:29.353Z,-11.64
2023-01-11T00:18:50.870Z,-11.63
2023-01-11T00:19:12.724Z,-11.62
2023-01-11T00:19:34.703Z,-11.62
2023-01-11T00:19:56.392Z,-11.61
2023-01-11T00:20:18.893Z,-11.60
2023-01-11T00:20:41.081Z,-11.60
2023-01-11T00:21:05.046Z,-11.59
2023-01-11T00:21:26.908Z,-11.59
2023-01-11T00:21:48.890Z,-11.58
2023-01-11T00:22:10.688Z,-11.58
2023-01-11T00:22:32.278Z,-11.57
2023-01-11T00:22:53.817Z,-11.57
2023-01-11T00:23:15.824Z,-11.56
2023-01-11T00:23:39.478Z,-11.56
2023-01-11T00:24:01.234Z,-11.55
2023-01-11T00:24:23.051Z,-11.55
2023-01-11T00:24:44.700Z,-11.54
2023-01-11T00:25:06.892Z,-11.55
2023-01-11T00:25:28.633Z,-11.56
2023-01-11T00:25:50.350Z,-11.56
2023-01-11T00:26:12.562Z,-11.57
2023-01-11T00:26:35.173Z,-11.58
2023-01-11T00:26:56.940Z,-11.60
2023-01-11T00:27:18.661Z,-11.61
2023-01-11T00:27:40.425Z,-11.64
2023-01-11T00:28:02.291Z,-11.65
2023-01-11T00:28:24.382Z,-11.66
2023-01-11T00:28:47.703Z,-11.68
2023-01-11T00:29:09.218Z,-11.69
2023-01-11T00:29:30.974Z,-11.71
2023-01-11T00:29:52.613Z,-11.72
2023-01-11T00:30:17.905Z,-11.74
2023-01-11T00:30:41.128Z,-11.76
2023-01-11T00:31:02.798Z,-11.78
2023-01-11T00:31:24.974Z,-11.79
2023-01-11T00:31:46.801Z,-11.80
2023-01-11T00:32:08.291Z,-11.82
2023-01-11T00:32:31.036Z,-11.83
2023-01-11T00:32:58.786Z,-11.84
2023-01-11T00:33:20.309Z,-11.84
2023-01-11T00:33:42.360Z,-11.84
2023-01-11T00:34:04.195Z,-11.83
2023-01-11T00:34:25.830Z,-11.82
2023-01-11T00:34:47.433Z,-11.81
2023-01-11T00:35:09.295Z,-11.80
2023-01-11T00:35:31.911Z,-11.79
2023-01-11T00:35:53.723Z,-11.78
2023-01-11T00:36:15.369Z,-11.77
2023-01-11T00:36:37.046Z,-11.76
2023-01-11T00:36:58.723Z,-11.74
2023-01-11T00:37:20.925Z,-11.74
2023-01-11T00:37:42.528Z,-11.73
2023-01-11T00:38:05.040Z,-11.72
2023-01-11T00:38:43.144Z,-11.71
2023-01-11T00:39:05.783Z,-11.70
2023-01-11T00:39:27.841Z,-11.69
2023-01-11T00:39:49.625Z,-11.69
2023-01-11T00:40:11.610Z,-11.69
2023-01-11T00:40:33.439Z,-11.69
2023-01-11T00:40:54.972Z,-11.68
2023-01-11T00:41:36.198Z,-11.68
2023-01-11T00:42:16.692Z,-11.69
2023-01-11T00:42:56.990Z,-11.68
2023-01-11T00:43:37.591Z,-11.69
2023-01-11T00:44:18.608Z,-11.69
2023-01-11T00:44:58.999Z,-11.68
2023-01-11T00:45:39.405Z,-11.65
2023-01-11T00:46:21.338Z,-11.65
2023-01-11T00:47:01.845Z,-11.65
2023-01-11T00:47:42.439Z,-11.63
2023-01-11T00:48:05.355Z,-11.63
2023-01-11T00:48:27.440Z,-11.62
2023-01-11T00:48:49.330Z,-11.62
2023-01-11T00:49:11.008Z,-11.62
2023-01-11T00:49:32.698Z,-11.62
2023-01-11T00:49:54.380Z,-11.61
2023-01-11T00:50:16.072Z,-11.61
2023-01-11T00:50:38.554Z,-11.61
2023-01-11T00:51:00.135Z,-11.61
2023-01-11T00:51:21.885Z,-11.60
2023-01-11T00:51:43.466Z,-11.60
2023-01-11T00:52:08.221Z,-11.61
2023-01-11T00:52:29.836Z,-11.62
2023-01-11T00:52:51.488Z,-11.63
2023-01-11T00:53:14.021Z,-11.65
2023-01-11T00:53:35.798Z,-11.66
2023-01-11T00:53:57.389Z,-11.66
2023-01-11T00:54:19.673Z,-11.68
2023-01-11T00:54:41.402Z,-11.69
2023-01-11T00:55:03.372Z,-11.70
2023-01-11T00:55:25.540Z,-11.71
2023-01-11T00:55:47.367Z,-11.72
2023-01-11T00:56:09.221Z,-11.73
2023-01-11T00:56:30.994Z,-11.74
2023-01-11T00:56:52.986Z,-11.76
2023-01-11T00:57:14.664Z,-11.77
2023-01-11T00:57:36.345Z,-11.78
2023-01-11T00:57:58.538Z,-11.80
2023-01-11T00:58:20.123Z,-11.80
2023-01-11T00:58:41.734Z,-11.82
2023-01-11T00:59:04.301Z,-11.83
2023-01-11T00:59:25.881Z,-11.84
2023-01-11T00:59:47.932Z,-11.84
2023-01-11T01:00:12.111Z,-11.85
2023-01-11T01:00:35.427Z,-11.84
2023-01-11T01:00:58.135Z,-11.82
2023-01-11T01:01:19.974Z,-11.81
2023-01-11T01:01:41.829Z,-11.79
2023-01-11T01:02:04.008Z,-11.77
2023-01-11T01:02:25.822Z,-11.75
2023-01-11T01:02:47.730Z,-11.74
2023-01-11T01:03:09.659Z,-11.72
2023-01-11T01:03:31.590Z,-11.71
2023-01-11T01:03:53.740Z,-11.69
2023-01-11T01:04:16.268Z,-11.68
2023-01-11T01:04:38.353Z,-11.67
2023-01-11T01:05:00.032Z,-11.66
2023-01-11T01:05:21.903Z,-11.66
2023-01-11T01:05:43.586Z,-11.65
2023-01-11T01:06:07.312Z,-11.64
2023-01-11T01:06:28.985Z,-11.63
2023-01-11T01:06:50.786Z,-11.62
2023-01-11T01:07:13.333Z,-11.63
2023-01-11T01:07:35.605Z,-11.61
2023-01-11T01:07:57.360Z,-11.61
2023-01-11T01:08:19.473Z,-11.60
2023-01-11T01:08:41.539Z,-11.60
2023-01-11T01:09:03.179Z,-11.60
2023-01-11T01:09:25.529Z,-11.59
2023-01-11T01:09:47.303Z,-11.59
2023-01-11T01:10:09.702Z,-11.59
2023-01-11T01:10:31.587Z,-11.59
2023-01-11T01:10:53.690Z,-11.60
2023-01-11T01:11:16.217Z,-11.60
2023-01-11T01:11:38.065Z,-11.61
2023-01-11T01:12:01.635Z,-11.62
2023-01-11T01:12:42.299Z,-11.65
2023-01-11T01:13:23.207Z,-11.67
2023-01-11T01:14:03.715Z,-11.69
2023-01-11T01:14:25.487Z,-11.71
2023-01-11T01:14:47.272Z,-11.72
2023-01-11T01:15:09.156Z,-11.74
2023-01-11T01:15:31.585Z,-11.75
2023-01-11T01:15:55.990Z,-11.77
2023-01-11T01:16:19.022Z,-11.77
2023-01-11T01:16:41.822Z,-11.79
2023-01-11T01:17:06.570Z,-11.81
2023-01-11T01:17:28.763Z,-11.82
2023-01-11T01:17:54.638Z,-11.83
2023-01-11T01:18:16.231Z,-11.84
2023-01-11T01:18:38.213Z,-11.85
2023-01-11T01:18:59.890Z,-11.85
2023-01-11T01:19:22.128Z,-11.85
2023-01-11T01:19:43.951Z,-11.84
2023-01-11T01:20:06.488Z,-11.82
2023-01-11T01:20:28.668Z,-11.80
2023-01-11T01:20:50.450Z,-11.78
2023-01-11T01:21:12.057Z,-11.77
2023-01-11T01:21:33.865Z,-11.75
2023-01-11T01:21:56.010Z,-11.74
2023-01-11T01:22:17.893Z,-11.72
2023-01-11T01:22:39.474Z,-11.71
2023-01-11T01:23:01.275Z,-11.69
2023-01-11T01:23:26.323Z,-11.68
2023-01-11T01:23:52.617Z,-11.66
2023-01-11T01:24:14.950Z,-11.65
2023-01-11T01:24:37.193Z,-11.64
2023-01-11T01:24:58.873Z,-11.62
2023-01-11T01:25:20.890Z,-11.61
2023-01-11T01:25:42.464Z,-11.61
2023-01-11T01:26:04.541Z,-11.60
2023-01-11T01:26:26.321Z,-11.59
2023-01-11T01:26:48.106Z,-11.59
2023-01-11T01:27:15.204Z,-11.58
2023-01-11T01:27:36.900Z,-11.57
2023-01-11T01:27:58.681Z,-11.57
2023-01-11T01:28:21.585Z,-11.57
2023-01-11T01:28:43.266Z,-11.56
2023-01-11T01:29:05.156Z,-11.56
2023-01-11T01:29:27.040Z,-11.56
2023-01-11T01:29:48.723Z,-11.57
2023-01-11T01:30:10.602Z,-11.58
2023-01-11T01:30:33.146Z,-11.59
2023-01-11T01:30:54.804Z,-11.60
2023-01-11T01:31:19.113Z,-11.61
2023-01-11T01:31:42.856Z,-11.64
2023-01-11T01:32:04.545Z,-11.66
2023-01-11T01:32:27.652Z,-11.67
2023-01-11T01:32:49.237Z,-11.69
2023-01-11T01:33:10.860Z,-11.69
2023-01-11T01:33:32.600Z,-11.71
2023-01-11T01:33:54.668Z,-11.72
2023-01-11T01:34:16.576Z,-11.73
2023-01-11T01:34:38.576Z,-11.74
2023-01-11T01:35:00.255Z,-11.75
2023-01-11T01:35:21.994Z,-11.76
2023-01-11T01:35:43.762Z,-11.78
2023-01-11T01:36:05.704Z,-11.80
2023-01-11T01:36:27.329Z,-11.80
2023-01-11T01:36:49.068Z,-11.81
2023-01-11T01:37:10.713Z,-11.83
2023-01-11T01:37:32.330Z,-11.84
2023-01-11T01:37:53.968Z,-11.84
2023-01-11T01:38:15.798Z,-11.84
2023-01-11T01:38:37.411Z,-11.83
2023-01-11T01:39:00.417Z,-11.83
2023-01-11T01:39:22.176Z,-11.81
2023-01-11T01:39:45.642Z,-11.79
2023-01-11T01:40:07.691Z,-11.78
2023-01-11T01:40:31.414Z,-11.77
2023-01-11T01:40:53.509Z,-11.75
2023-01-11T01:41:15.496Z,-11.74
2023-01-11T01:41:37.110Z,-11.73
2023-01-11T01:41:59.061Z,-11.71
2023-01-11T01:42:21.060Z,-11.70
2023-01-11T01:42:42.678Z,-11.69
2023-01-11T01:43:04.780Z,-11.68
2023-01-11T01:43:47.470Z,-11.66
2023-01-11T01:44:28.488Z,-11.64
2023-01-11T01:44:57.425Z,-11.63
2023-01-11T01:45:23.343Z,-11.61
2023-01-11T01:45:45.292Z,-11.60
2023-01-11T01:46:06.928Z,-11.59
2023-01-11T01:46:29.354Z,-11.58
2023-01-11T01:46:51.062Z,-11.58
2023-01-11T01:47:14.968Z,-11.57
2023-01-11T01:47:36.682Z,-11.57
2023-01-11T01:48:01.737Z,-11.55
2023-01-11T01:48:24.703Z,-11.55
2023-01-11T01:48:47.989Z,-11.55
2023-01-11T01:49:11.684Z,-11.54
2023-01-11T01:49:33.397Z,-11.54
2023-01-11T01:49:55.763Z,-11.53
2023-01-11T01:50:21.676Z,-11.53
2023-01-11T01:50:47.420Z,-11.52
2023-01-11T01:51:09.198Z,-11.53
2023-01-11T01:51:38.751Z,-11.53
2023-01-11T01:52:00.331Z,-11.53
2023-01-11T01:52:28.411Z,-11.54
2023-01-11T01:52:51.334Z,-11.55
2023-01-11T01:53:16.632Z,-11.56
2023-01-11T01:53:40.051Z,-11.57
2023-01-11T01:54:03.273Z,-11.58
2023-01-11T01:54:27.331Z,-11.59
2023-01-11T01:54:48.934Z,-11.60
2023-01-11T01:55:11.487Z,-11.62
2023-01-11T01:55:34.637Z,-11.63
2023-01-11T01:55:57.917Z,-11.65
2023-01-11T01:56:22.874Z,-11.67
2023-01-11T01:56:48.450Z,-11.68
2023-01-11T01:57:12.003Z,-11.70
2023-01-11T01:57:33.978Z,-11.71
2023-01-11T01:57:55.839Z,-11.72
2023-01-11T01:58:18.041Z,-11.73
2023-01-11T01:58:40.873Z,-11.74
2023-01-11T01:59:04.365Z,-11.76
2023-01-11T01:59:26.202Z,-11.77
2023-01-11T01:59:51.107Z,-11.78
2023-01-11T02:00:13.336Z,-11.77
2023-01-11T02:00:37.230Z,-11.77
2023-01-11T02:01:18.825Z,-11.75
2023-01-11T02:01:48.380Z,-11.73
2023-01-11T02:02:10.802Z,-11.70
2023-01-11T02:02:32.587Z,-11.68
2023-01-11T02:02:54.771Z,-11.66
2023-01-11T02:03:20.675Z,-11.65
2023-01-11T02:03:42.271Z,-11.63
2023-01-11T02:04:05.256Z,-11.63
2023-01-11T02:04:27.262Z,-11.61
2023-01-11T02:04:49.031Z,-11.61
2023-01-11T02:05:11.019Z,-11.60
2023-01-11T02:05:32.710Z,-11.60
2023-01-11T02:05:54.396Z,-11.60
2023-01-11T02:06:16.091Z,-11.59
2023-01-11T02:06:38.090Z,-11.59
2023-01-11T02:07:02.395Z,-11.59
2023-01-11T02:07:29.126Z,-11.59
2023-01-11T02:07:51.615Z,-11.58
2023-01-11T02:08:25.879Z,-11.58
2023-01-11T02:08:48.824Z,-11.58
2023-01-11T02:09:17.601Z,-11.58
2023-01-11T02:09:42.761Z,-11.58
2023-01-11T02:10:07.820Z,-11.57
2023-01-11T02:10:29.910Z,-11.58
2023-01-11T02:10:52.514Z,-11.58
2023-01-11T02:11:29.241Z,-11.57
2023-01-11T02:11:52.970Z,-11.57
2023-01-11T02:12:14.648Z,-11.57
2023-01-11T02:12:40.014Z,-11.57
2023-01-11T02:13:05.777Z,-11.56
2023-01-11T02:13:27.487Z,-11.56
2023-01-11T02:13:49.143Z,-11.55
2023-01-11T02:14:12.810Z,-11.55
2023-01-11T02:14:35.285Z,-11.55
2023-01-11T02:14:58.589Z,-11.55
2023-01-11T02:15:20.813Z,-11.54
2023-01-11T02:15:42.571Z,-11.54
2023-01-11T02:16:08.267Z,-11.54
2023-01-11T02:16:30.072Z,-11.54
2023-01-11T02:16:52.325Z,-11.53
2023-01-11T02:17:15.633Z,-11.54
2023-01-11T02:17:37.315Z,-11.54
2023-01-11T02:17:59.207Z,-11.55
2023-01-11T02:18:21.137Z,-11.56
2023-01-11T02:18:42.912Z,-11.57
2023-01-11T02:19:04.505Z,-11.59
2023-01-11T02:19:45.772Z,-11.60
2023-01-11T02:20:26.376Z,-11.62
2023-01-11T02:21:02.786Z,-11.66
2023-01-11T02:21:35.750Z,-11.69
2023-01-11T02:22:00.449Z,-11.71
2023-01-11T02:22:41.020Z,-11.72
2023-01-11T02:23:15.640Z,-11.75
2023-01-11T02:23:37.526Z,-11.77
2023-01-11T02:24:04.741Z,-11.78
2023-01-11T02:24:46.073Z,-11.80
2023-01-11T02:25:13.874Z,-11.82
2023-01-11T02:25:39.259Z,-11.82
2023-01-11T02:26:03.598Z,-11.83
2023-01-11T02:26:44.690Z,-11.82
2023-01-11T02:27:25.643Z,-11.81
2023-01-11T02:27:53.025Z,-11.79
2023-01-11T02:28:20.217Z,-11.76
2023-01-11T02:28:47.855Z,-11.75
2023-01-11T02:29:09.714Z,-11.73
2023-01-11T02:29:34.672Z,-11.72
2023-01-11T02:30:05.803Z,-11.71
2023-01-11T02:30:35.933Z,-11.70
2023-01-11T02:31:19.688Z,-11.68
2023-01-11T02:32:04.816Z,-11.67
2023-01-11T02:32:47.559Z,-11.65
2023-01-11T02:33:15.224Z,-11.63
2023-01-11T02:33:40.029Z,-11.62
2023-01-11T02:34:07.537Z,-11.61
2023-01-11T02:34:35.154Z,-11.60
2023-01-11T02:34:59.696Z,-11.60
2023-01-11T02:35:39.996Z,-11.59
2023-01-11T02:36:09.141Z,-11.57
2023-01-11T02:36:31.639Z,-11.56
2023-01-11T02:37:03.245Z,-11.56
2023-01-11T02:37:43.720Z,-11.55
2023-01-11T02:38:07.214Z,-11.56
2023-01-11T02:38:32.837Z,-11.57
2023-01-11T02:39:01.786Z,-11.58
2023-01-11T02:39:30.523Z,-11.59
2023-01-11T02:39:55.476Z,-11.61
2023-01-11T02:40:26.474Z,-11.63
2023-01-11T02:41:17.606Z,-11.64
2023-01-11T02:41:58.630Z,-11.68
2023-01-11T02:42:43.321Z,-11.70
2023-01-11T02:43:26.173Z,-11.72
2023-01-11T02:44:07.999Z,-11.74
2023-01-11T02:44:53.955Z,-11.77
2023-01-11T02:45:19.717Z,-11.80
2023-01-11T02:45:47.611Z,-11.81
2023-01-11T02:46:14.460Z,-11.80
2023-01-11T02:46:41.968Z,-11.80
2023-01-11T02:47:04.177Z,-11.79
2023-01-11T02:47:34.995Z,-11.78
2023-01-11T02:48:00.131Z,-11.76
2023-01-11T02:48:30.837Z,-11.74
2023-01-11T02:48:56.684Z,-11.72
2023-01-11T02:49:20.950Z,-11.70
2023-01-11T02:49:46.751Z,-11.70
2023-01-11T02:50:29.986Z,-11.68
2023-01-11T02:50:52.514Z,-11.67
2023-01-11T02:51:19.838Z,-11.65
2023-01-11T02:51:46.905Z,-11.65
2023-01-11T02:52:12.344Z,-11.63
2023-01-11T02:52:57.566Z,-11.62
2023-01-11T02:53:27.337Z,-11.61
2023-01-11T02:53:51.365Z,-11.60
2023-01-11T02:54:13.357Z,-11.60
2023-01-11T02:54:35.047Z,-11.60
2023-01-11T02:54:57.156Z,-11.59
2023-01-11T02:55:20.699Z,-11.58
2023-01-11T02:55:47.961Z,-11.58
2023-01-11T02:56:10.902Z,-11.57
2023-01-11T02:57:35.652Z,-11.51
2023-01-11T02:57:57.962Z,-11.55
2023-01-11T02:58:20.245Z,-11.55
2023-01-11T02:58:42.247Z,-11.55
2023-01-11T02:59:04.016Z,-11.55
2023-01-11T02:59:29.483Z,-11.55
2023-01-11T02:59:51.315Z,-11.56
2023-01-11T03:00:13.461Z,-11.56
2023-01-11T03:00:37.497Z,-11.57
2023-01-11T03:00:59.288Z,-11.58
2023-01-11T03:01:22.975Z,-11.59
2023-01-11T03:01:46.199Z,-11.60
2023-01-11T03:02:08.078Z,-11.61
2023-01-11T03:02:29.985Z,-11.63
2023-01-11T03:03:10.481Z,-11.64
2023-01-11T03:03:34.066Z,-11.67
2023-01-11T03:03:56.420Z,-11.69
2023-01-11T03:04:34.058Z,-11.70
2023-01-11T03:04:55.850Z,-11.72
2023-01-11T03:05:17.630Z,-11.74
2023-01-11T03:05:43.998Z,-11.76
2023-01-11T03:06:07.087Z,-11.77
2023-01-11T03:06:31.211Z,-11.78
2023-01-11T03:07:13.260Z,-11.79
2023-01-11T03:07:34.983Z,-11.80
2023-01-11T03:07:56.728Z,-11.79
2023-01-11T03:08:38.700Z,-11.78
2023-01-11T03:09:06.082Z,-11.75
2023-01-11T03:09:32.398Z,-11.74
2023-01-11T03:10:06.045Z,-11.73
2023-01-11T03:10:46.541Z,-11.71
2023-01-11T03:11:45.147Z,-11.69
2023-01-11T03:12:28.816Z,-11.67
2023-01-11T03:12:59.808Z,-11.66
2023-01-11T03:13:41.839Z,-11.65
2023-01-11T03:14:18.661Z,-11.64
2023-01-11T03:14:40.454Z,-11.63
2023-01-11T03:15:05.723Z,-11.62
2023-01-11T03:15:27.490Z,-11.61
2023-01-11T03:15:53.956Z,-11.61
2023-01-11T03:16:23.312Z,-11.60
2023-01-11T03:17:20.502Z,-11.59
2023-01-11T03:18:01.118Z,-11.57
2023-01-11T03:18:23.310Z,-11.56
2023-01-11T03:18:47.791Z,-11.55
2023-01-11T03:19:13.319Z,-11.54
2023-01-11T03:19:36.939Z,-11.54
2023-01-11T03:20:10.296Z,-11.54
2023-01-11T03:20:33.382Z,-11.55
2023-01-11T03:20:59.475Z,-11.56
2023-01-11T03:21:40.079Z,-11.57
2023-01-11T03:22:07.748Z,-11.60
2023-01-11T03:22:35.100Z,-11.61
2023-01-11T03:22:59.802Z,-11.64
2023-01-11T03:23:25.837Z,-11.65
2023-01-11T03:23:56.613Z,-11.66
2023-01-11T03:24:18.602Z,-11.68
2023-01-11T03:24:48.312Z,-11.69
2023-01-11T03:25:14.442Z,-11.70
2023-01-11T03:25:38.888Z,-11.72
2023-01-11T03:26:07.424Z,-11.73
2023-01-11T03:26:32.480Z,-11.75
2023-01-11T03:27:06.536Z,-11.77
2023-01-11T03:27:46.228Z,-11.79
2023-01-11T03:28:15.476Z,-11.79
2023-01-11T03:28:37.253Z,-11.78
2023-01-11T03:29:17.347Z,-11.77
2023-01-11T03:29:40.459Z,-11.75
2023-01-11T03:30:13.702Z,-11.74
2023-01-11T03:30:37.528Z,-11.72
2023-01-11T03:31:02.337Z,-11.70
2023-01-11T03:31:30.080Z,-11.68
2023-01-11T03:32:11.008Z,-11.67
2023-01-11T03:32:42.114Z,-11.65
2023-01-11T03:33:03.892Z,-11.64
2023-01-11T03:33:32.314Z,-11.63
2023-01-11T03:33:56.755Z,-11.62
2023-01-11T03:34:19.877Z,-11.61
2023-01-11T03:34:50.160Z,-11.60
2023-01-11T03:35:19.722Z,-11.60
2023-01-11T03:36:00.113Z,-11.59
2023-01-11T03:36:41.832Z,-11.58
2023-01-11T03:37:06.287Z,-11.56
2023-01-11T03:37:33.785Z,-11.56
2023-01-11T03:38:18.683Z,-11.55
2023-01-11T03:38:42.337Z,-11.54
2023-01-11T03:39:09.209Z,-11.54
2023-01-11T03:39:39.174Z,-11.54
2023-01-11T03:40:06.173Z,-11.55
2023-01-11T03:40:29.084Z,-11.56
2023-01-11T03:40:51.900Z,-11.57
2023-01-11T03:41:17.971Z,-11.59
2023-01-11T03:41:39.646Z,-11.60
2023-01-11T03:42:01.755Z,-11.61
2023-01-11T03:42:23.837Z,-11.63
2023-01-11T03:43:05.260Z,-11.65
2023-01-11T03:43:27.044Z,-11.67
2023-01-11T03:43:48.832Z,-11.69
2023-01-11T03:44:11.025Z,-11.70
2023-01-11T03:44:35.154Z,-11.71
2023-01-11T03:44:56.847Z,-11.72
2023-01-11T03:45:18.833Z,-11.73
2023-01-11T03:45:43.580Z,-11.74
2023-01-11T03:46:15.506Z,-11.75
2023-01-11T03:46:39.161Z,-11.77
2023-01-11T03:47:05.293Z,-11.79
2023-01-11T03:47:27.491Z,-11.80
2023-01-11T03:47:49.196Z,-11.81
2023-01-11T03:48:21.900Z,-11.81
2023-01-11T03:48:47.882Z,-11.80
2023-01-11T03:49:11.216Z,-11.79
2023-01-11T03:49:53.803Z,-11.79
2023-01-11T03:50:15.637Z,-11.76
2023-01-11T03:50:37.416Z,-11.74
2023-01-11T03:50:59.511Z,-11.73
2023-01-11T03:51:22.618Z,-11.71
2023-01-11T03:51:44.910Z,-11.70
2023-01-11T03:52:07.621Z,-11.69
2023-01-11T03:52:31.450Z,-11.69
2023-01-11T03:52:53.745Z,-11.68
2023-01-11T03:53:15.836Z,-11.67
2023-01-11T03:53:37.843Z,-11.66
2023-01-11T03:54:00.129Z,-11.66
2023-01-11T03:54:23.342Z,-11.65
2023-01-11T03:54:45.646Z,-11.64
2023-01-11T03:55:08.623Z,-11.63
2023-01-11T03:55:30.654Z,-11.62
2023-01-11T03:55:53.958Z,-11.62
2023-01-11T03:56:16.168Z,-11.61
2023-01-11T03:56:44.170Z,-11.60
2023-01-11T03:57:10.962Z,-11.59
2023-01-11T03:57:33.456Z,-11.58
2023-01-11T03:57:55.250Z,-11.57
2023-01-11T03:58:17.033Z,-11.56
2023-01-11T03:58:39.023Z,-11.56
2023-01-11T03:59:01.020Z,-11.56
2023-01-11T03:59:22.795Z,-11.56
2023-01-11T03:59:44.581Z,-11.57
2023-01-11T04:00:06.674Z,-11.55
2023-01-11T04:00:28.457Z,-11.56
2023-01-11T04:00:50.288Z,-11.55
2023-01-11T04:01:12.198Z,-11.54
2023-01-11T04:01:34.141Z,-11.54
2023-01-11T04:01:56.010Z,-11.53
2023-01-11T04:02:36.915Z,-11.53
2023-01-11T04:03:00.031Z,-11.52
2023-01-11T04:03:22.114Z,-11.51
2023-01-11T04:03:43.834Z,-11.52
2023-01-11T04:04:05.654Z,-11.52
2023-01-11T04:04:27.472Z,-11.52
2023-01-11T04:04:49.358Z,-11.53
2023-01-11T04:05:11.143Z,-11.53
2023-01-11T04:05:33.087Z,-11.55
2023-01-11T04:05:55.535Z,-11.56
2023-01-11T04:06:17.316Z,-11.57
2023-01-11T04:06:39.995Z,-11.58
2023-01-11T04:07:01.978Z,-11.59
2023-01-11T04:07:23.822Z,-11.60
2023-01-11T04:07:45.580Z,-11.62
2023-01-11T04:08:07.364Z,-11.63
2023-01-11T04:08:29.147Z,-11.64
2023-01-11T04:08:50.889Z,-11.65
2023-01-11T04:09:12.616Z,-11.67
2023-01-11T04:09:35.162Z,-11.68
2023-01-11T04:09:58.942Z,-11.69
2023-01-11T04:10:20.653Z,-11.70
2023-01-11T04:10:42.411Z,-11.71
2023-01-11T04:11:05.016Z,-11.72
2023-01-11T04:11:26.729Z,-11.74
2023-01-11T04:11:48.698Z,-11.75
2023-01-11T04:12:10.578Z,-11.76
2023-01-11T04:12:32.375Z,-11.76
2023-01-11T04:12:54.121Z,-11.76
2023-01-11T04:13:15.825Z,-11.77
2023-01-11T04:13:37.608Z,-11.75
2023-01-11T04:13:59.393Z,-11.74
2023-01-11T04:14:21.089Z,-11.73
2023-01-11T04:14:42.819Z,-11.71
2023-01-11T04:15:05.394Z,-11.69
2023-01-11T04:15:27.146Z,-11.67
2023-01-11T04:15:48.926Z,-11.65
2023-01-11T04:16:10.669Z,-11.63
2023-01-11T04:16:32.541Z,-11.62
2023-01-11T04:16:54.283Z,-11.61
2023-01-11T04:17:16.067Z,-11.60
2023-01-11T04:17:37.849Z,-11.59
2023-01-11T04:18:05.564Z,-11.58
2023-01-11T04:18:27.300Z,-11.57
2023-01-11T04:18:49.032Z,-11.56
2023-01-11T04:19:10.821Z,-11.55
2023-01-11T04:19:32.525Z,-11.54
2023-01-11T04:19:54.284Z,-11.54
2023-01-11T04:20:16.072Z,-11.53
2023-01-11T04:20:38.977Z,-11.52
2023-01-11T04:21:00.764Z,-11.52
2023-01-11T04:21:22.549Z,-11.51
2023-01-11T04:21:44.286Z,-11.51
2023-01-11T04:22:06.021Z,-11.51
2023-01-11T04:22:27.711Z,-11.50
2023-01-11T04:22:49.482Z,-11.51
2023-01-11T04:23:11.474Z,-11.51
2023-01-11T04:23:33.459Z,-11.52
2023-01-11T04:23:55.246Z,-11.53
2023-01-11T04:24:18.661Z,-11.55
2023-01-11T04:24:40.455Z,-11.56
2023-01-11T04:25:02.236Z,-11.57
2023-01-11T04:25:24.018Z,-11.59
2023-01-11T04:25:47.163Z,-11.61
2023-01-11T04:26:08.919Z,-11.63
2023-01-11T04:26:30.598Z,-11.64
2023-01-11T04:26:52.307Z,-11.66
2023-01-11T04:27:14.075Z,-11.68
2023-01-11T04:27:35.816Z,-11.69
2023-01-11T04:27:57.837Z,-11.70
2023-01-11T04:28:19.623Z,-11.72
2023-01-11T04:28:41.406Z,-11.72
2023-01-11T04:29:03.195Z,-11.74
2023-01-11T04:29:24.908Z,-11.75
2023-01-11T04:29:46.764Z,-11.76
2023-01-11T04:30:09.069Z,-11.77
2023-01-11T04:30:30.784Z,-11.79
2023-01-11T04:30:52.727Z,-11.80
2023-01-11T04:31:14.664Z,-11.81
2023-01-11T04:31:36.641Z,-11.81
2023-01-11T04:31:58.492Z,-11.80
2023-01-11T04:32:20.275Z,-11.79
2023-01-11T04:32:42.058Z,-11.77
2023-01-11T04:33:03.842Z,-11.75
2023-01-11T04:33:25.628Z,-11.74
2023-01-11T04:33:47.319Z,-11.73
2023-01-11T04:34:09.051Z,-11.72
2023-01-11T04:34:30.878Z,-11.70
2023-01-11T04:34:52.665Z,-11.69
2023-01-11T04:35:14.456Z,-11.68
2023-01-11T04:35:36.244Z,-11.67
2023-01-11T04:35:57.944Z,-11.65
2023-01-11T04:36:19.654Z,-11.64
2023-01-11T04:36:41.407Z,-11.63
2023-01-11T04:37:03.367Z,-11.62
2023-01-11T04:37:25.154Z,-11.62
2023-01-11T04:37:46.945Z,-11.61
2023-01-11T04:38:08.729Z,-11.61
2023-01-11T04:38:30.507Z,-11.60
2023-01-11T04:38:52.301Z,-11.60
2023-01-11T04:39:14.008Z,-11.59
2023-01-11T04:39:35.762Z,-11.59
2023-01-11T04:39:57.543Z,-11.58
2023-01-11T04:40:19.367Z,-11.58
2023-01-11T04:40:41.116Z,-11.57
2023-01-11T04:41:23.576Z,-11.57
2023-01-11T04:42:04.366Z,-11.55
2023-01-11T04:42:26.091Z,-11.55
2023-01-11T04:42:47.837Z,-11.55
2023-01-11T04:43:09.576Z,-11.55
2023-01-11T04:43:31.398Z,-11.56
2023-01-11T04:43:58.812Z,-11.56
2023-01-11T04:44:20.516Z,-11.57
2023-01-11T04:44:42.226Z,-11.58
2023-01-11T04:45:07.309Z,-11.59
2023-01-11T04:45:29.782Z,-11.60
2023-01-11T04:45:51.639Z,-11.61
2023-01-11T04:46:13.507Z,-11.62
2023-01-11T04:46:35.291Z,-11.63
2023-01-11T04:46:57.079Z,-11.64
2023-01-11T04:47:19.678Z,-11.66
2023-01-11T04:47:41.464Z,-11.67
2023-01-11T04:48:03.657Z,-11.68
2023-01-11T04:48:25.439Z,-11.68
2023-01-11T04:48:47.238Z,-11.70
2023-01-11T04:49:09.010Z,-11.71
2023-01-11T04:49:30.790Z,-11.72
2023-01-11T04:49:52.784Z,-11.73
2023-01-11T04:50:14.585Z,-11.74
2023-01-11T04:50:36.407Z,-11.75
2023-01-11T04:50:58.241Z,-11.76
2023-01-11T04:51:20.049Z,-11.77
2023-01-11T04:51:41.850Z,-11.77
2023-01-11T04:52:03.699Z,-11.77
2023-01-11T04:52:25.401Z,-11.76
2023-01-11T04:52:47.161Z,-11.75
2023-01-11T04:53:08.944Z,-11.74
2023-01-11T04:53:30.637Z,-11.72
2023-01-11T04:53:52.383Z,-11.72
2023-01-11T04:54:15.533Z,-11.70
2023-01-11T04:54:37.519Z,-11.69
2023-01-11T04:54:59.299Z,-11.67
2023-01-11T04:55:21.286Z,-11.66
2023-01-11T04:55:43.700Z,-11.65
2023-01-11T04:56:06.101Z,-11.63
2023-01-11T04:56:29.408Z,-11.62
2023-01-11T04:56:51.115Z,-11.61
2023-01-11T04:57:14.211Z,-11.60
2023-01-11T04:57:36.000Z,-11.59
2023-01-11T04:57:57.692Z,-11.58
2023-01-11T04:58:19.450Z,-11.58
2023-01-11T04:58:41.233Z,-11.57
2023-01-11T04:59:03.042Z,-11.56
2023-01-11T04:59:25.012Z,-11.56
2023-01-11T04:59:46.911Z,-11.56
2023-01-11T05:00:10.979Z,-11.55
2023-01-11T05:00:32.820Z,-11.54
2023-01-11T05:00:54.656Z,-11.54
2023-01-11T05:01:17.352Z,-11.53
2023-01-11T05:01:39.131Z,-11.52
2023-01-11T05:02:00.806Z,-11.52
2023-01-11T05:02:22.542Z,-11.51
2023-01-11T05:02:44.342Z,-11.50
2023-01-11T05:03:06.071Z,-11.50
2023-01-11T05:03:27.909Z,-11.49
2023-01-11T05:03:49.727Z,-11.49
2023-01-11T05:04:13.492Z,-11.49
2023-01-11T05:04:35.633Z,-11.49
2023-01-11T05:04:57.615Z,-11.49
2023-01-11T05:05:19.328Z,-11.50
2023-01-11T05:05:41.174Z,-11.51
2023-01-11T05:06:02.958Z,-11.51
2023-01-11T05:06:24.830Z,-11.52
2023-01-11T05:06:46.763Z,-11.53
2023-01-11T05:07:08.796Z,-11.55
2023-01-11T05:07:30.608Z,-11.57
2023-01-11T05:07:52.390Z,-11.58